sensor_id;sensor_type;location;lat;lon;timestamp;P1;durP1;ratioP1;P2;durP2;ratioP2
32814;SDS011;19165;48.182;16.374;2022-08-01T00:02:15;3.80;;;3.03;;
32814;SDS011;19165;48.182;16.374;2022-08-01T00:04:41;3.05;;;2.80;;
32814;SDS011;19165;48.182;16.374;2022-08-01T00:07:07;7.50;;;3.45;;
32814;SDS011;19165;48.182;16.374;2022-08-01T00:09:33;4.05;;;2.83;;
32814;SDS011;19165;48.182;16.374;2022-08-01T00:11:59;4.75;;;2.95;;
32814;SDS011;19165;48.182;16.374;2022-08-01T00:14:26;3.95;;;2.78;;
32814;SDS011;19165;48.182;16.374;2022-08-01T00:16:52;6.47;;;3.22;;
32814;SDS011;19165;48.182;16.374;2022-08-01T00:19:18;3.80;;;2.83;;
32814;SDS011;19165;48.182;16.374;2022-08-01T00:21:44;6.72;;;3.30;;
32814;SDS011;19165;48.182;16.374;2022-08-01T00:24:10;5.25;;;3.35;;
32814;SDS011;19165;48.182;16.374;2022-08-01T00:26:36;4.97;;;2.92;;
32814;SDS011;19165;48.182;16.374;2022-08-01T00:29:02;3.90;;;3.10;;
32814;SDS011;19165;48.182;16.374;2022-08-01T00:31:29;5.97;;;2.95;;
32814;SDS011;19165;48.182;16.374;2022-08-01T00:33:55;3.83;;;2.90;;
32814;SDS011;19165;48.182;16.374;2022-08-01T00:36:21;6.57;;;3.33;;
32814;SDS011;19165;48.182;16.374;2022-08-01T00:38:47;4.38;;;2.85;;
32814;SDS011;19165;48.182;16.374;2022-08-01T00:41:13;3.65;;;3.20;;
32814;SDS011;19165;48.182;16.374;2022-08-01T00:43:39;3.03;;;2.72;;
32814;SDS011;19165;48.182;16.374;2022-08-01T00:46:05;3.53;;;3.00;;
32814;SDS011;19165;48.182;16.374;2022-08-01T00:48:32;3.30;;;3.00;;
32814;SDS011;19165;48.182;16.374;2022-08-01T00:50:58;4.85;;;3.40;;
32814;SDS011;19165;48.182;16.374;2022-08-01T00:53:24;4.57;;;2.80;;
32814;SDS011;19165;48.182;16.374;2022-08-01T00:55:50;4.60;;;3.08;;
32814;SDS011;19165;48.182;16.374;2022-08-01T00:58:16;4.07;;;3.28;;
32814;SDS011;19165;48.182;16.374;2022-08-01T01:00:42;3.60;;;3.30;;
32814;SDS011;19165;48.182;16.374;2022-08-01T01:03:08;4.18;;;3.28;;
32814;SDS011;19165;48.182;16.374;2022-08-01T01:05:38;3.88;;;3.40;;
32814;SDS011;19165;48.182;16.374;2022-08-01T01:08:12;3.17;;;2.88;;
32814;SDS011;19165;48.182;16.374;2022-08-01T01:10:43;4.22;;;3.00;;
32814;SDS011;19165;48.182;16.374;2022-08-01T01:13:18;5.03;;;3.17;;
32814;SDS011;19165;48.182;16.374;2022-08-01T01:15:49;3.55;;;3.25;;
32814;SDS011;19165;48.182;16.374;2022-08-01T01:18:22;3.97;;;3.00;;
32814;SDS011;19165;48.182;16.374;2022-08-01T01:20:52;5.00;;;3.20;;
32814;SDS011;19165;48.182;16.374;2022-08-01T01:23:32;4.75;;;3.35;;
32814;SDS011;19165;48.182;16.374;2022-08-01T01:26:13;5.32;;;3.10;;
32814;SDS011;19165;48.182;16.374;2022-08-01T01:29:02;3.47;;;2.95;;
32814;SDS011;19165;48.182;16.374;2022-08-01T01:31:31;4.20;;;3.10;;
32814;SDS011;19165;48.182;16.374;2022-08-01T01:34:01;6.88;;;3.35;;
32814;SDS011;19165;48.182;16.374;2022-08-01T01:36:29;4.63;;;3.10;;
32814;SDS011;19165;48.182;16.374;2022-08-01T01:38:57;4.68;;;3.38;;
32814;SDS011;19165;48.182;16.374;2022-08-01T01:41:25;3.33;;;3.03;;
32814;SDS011;19165;48.182;16.374;2022-08-01T01:43:53;4.80;;;3.30;;
32814;SDS011;19165;48.182;16.374;2022-08-01T01:46:24;4.45;;;3.45;;
32814;SDS011;19165;48.182;16.374;2022-08-01T01:48:52;6.18;;;3.40;;
32814;SDS011;19165;48.182;16.374;2022-08-01T01:51:21;3.65;;;3.05;;
32814;SDS011;19165;48.182;16.374;2022-08-01T01:53:49;3.47;;;3.15;;
32814;SDS011;19165;48.182;16.374;2022-08-01T01:56:16;3.95;;;3.05;;
32814;SDS011;19165;48.182;16.374;2022-08-01T01:58:45;3.47;;;2.85;;
32814;SDS011;19165;48.182;16.374;2022-08-01T02:01:13;4.53;;;3.20;;
32814;SDS011;19165;48.182;16.374;2022-08-01T02:03:41;4.13;;;3.30;;
32814;SDS011;19165;48.182;16.374;2022-08-01T02:06:08;5.15;;;3.30;;
32814;SDS011;19165;48.182;16.374;2022-08-01T02:08:34;4.38;;;3.10;;
32814;SDS011;19165;48.182;16.374;2022-08-01T02:11:02;3.95;;;2.92;;
32814;SDS011;19165;48.182;16.374;2022-08-01T02:13:44;3.25;;;2.97;;
32814;SDS011;19165;48.182;16.374;2022-08-01T02:16:13;6.55;;;3.03;;
32814;SDS011;19165;48.182;16.374;2022-08-01T02:18:43;3.58;;;3.20;;
32814;SDS011;19165;48.182;16.374;2022-08-01T02:21:09;4.63;;;3.10;;
32814;SDS011;19165;48.182;16.374;2022-08-01T02:23:39;5.32;;;3.10;;
32814;SDS011;19165;48.182;16.374;2022-08-01T02:26:07;4.30;;;3.00;;
32814;SDS011;19165;48.182;16.374;2022-08-01T02:28:41;5.13;;;3.17;;
32814;SDS011;19165;48.182;16.374;2022-08-01T02:31:13;4.80;;;3.30;;
32814;SDS011;19165;48.182;16.374;2022-08-01T02:33:45;3.40;;;3.10;;
32814;SDS011;19165;48.182;16.374;2022-08-01T02:36:17;3.47;;;3.17;;
32814;SDS011;19165;48.182;16.374;2022-08-01T02:38:44;5.25;;;3.20;;
32814;SDS011;19165;48.182;16.374;2022-08-01T02:41:12;4.82;;;3.28;;
32814;SDS011;19165;48.182;16.374;2022-08-01T02:43:46;8.83;;;3.10;;
32814;SDS011;19165;48.182;16.374;2022-08-01T02:46:16;4.85;;;3.00;;
32814;SDS011;19165;48.182;16.374;2022-08-01T02:48:47;6.00;;;3.72;;
32814;SDS011;19165;48.182;16.374;2022-08-01T02:51:16;4.50;;;3.15;;
32814;SDS011;19165;48.182;16.374;2022-08-01T02:53:47;3.53;;;2.50;;
32814;SDS011;19165;48.182;16.374;2022-08-01T02:56:14;4.78;;;3.28;;
32814;SDS011;19165;48.182;16.374;2022-08-01T02:58:42;7.60;;;3.30;;
32814;SDS011;19165;48.182;16.374;2022-08-01T03:01:09;4.80;;;3.13;;
32814;SDS011;19165;48.182;16.374;2022-08-01T03:03:37;3.58;;;3.25;;
32814;SDS011;19165;48.182;16.374;2022-08-01T03:06:05;5.10;;;3.05;;
32814;SDS011;19165;48.182;16.374;2022-08-01T03:08:31;6.40;;;3.40;;
32814;SDS011;19165;48.182;16.374;2022-08-01T03:11:00;2.88;;;2.63;;
32814;SDS011;19165;48.182;16.374;2022-08-01T03:13:28;3.20;;;2.90;;
32814;SDS011;19165;48.182;16.374;2022-08-01T03:15:56;5.65;;;3.00;;
32814;SDS011;19165;48.182;16.374;2022-08-01T03:18:23;5.35;;;3.15;;
32814;SDS011;19165;48.182;16.374;2022-08-01T03:20:52;3.50;;;3.20;;
32814;SDS011;19165;48.182;16.374;2022-08-01T03:23:21;4.15;;;2.95;;
32814;SDS011;19165;48.182;16.374;2022-08-01T03:25:49;3.78;;;2.97;;
32814;SDS011;19165;48.182;16.374;2022-08-01T03:28:16;4.28;;;3.10;;
32814;SDS011;19165;48.182;16.374;2022-08-01T03:30:44;3.10;;;2.80;;
32814;SDS011;19165;48.182;16.374;2022-08-01T03:33:12;4.38;;;2.83;;
32814;SDS011;19165;48.182;16.374;2022-08-01T03:35:39;4.88;;;2.70;;
32814;SDS011;19165;48.182;16.374;2022-08-01T03:38:10;4.75;;;3.00;;
32814;SDS011;19165;48.182;16.374;2022-08-01T03:40:43;3.08;;;2.83;;
32814;SDS011;19165;48.182;16.374;2022-08-01T03:43:16;4.00;;;2.80;;
32814;SDS011;19165;48.182;16.374;2022-08-01T03:45:46;5.00;;;2.90;;
32814;SDS011;19165;48.182;16.374;2022-08-01T03:48:16;7.43;;;5.25;;
32814;SDS011;19165;48.182;16.374;2022-08-01T03:50:45;5.75;;;3.50;;
32814;SDS011;19165;48.182;16.374;2022-08-01T03:53:13;4.47;;;3.05;;
32814;SDS011;19165;48.182;16.374;2022-08-01T03:55:42;5.55;;;3.20;;
32814;SDS011;19165;48.182;16.374;2022-08-01T03:58:09;6.90;;;3.35;;
32814;SDS011;19165;48.182;16.374;2022-08-01T04:00:37;5.80;;;3.03;;
32814;SDS011;19165;48.182;16.374;2022-08-01T04:03:04;4.50;;;3.25;;
32814;SDS011;19165;48.182;16.374;2022-08-01T04:05:32;4.70;;;3.20;;
32814;SDS011;19165;48.182;16.374;2022-08-01T04:07:58;3.75;;;3.00;;
32814;SDS011;19165;48.182;16.374;2022-08-01T04:10:27;3.60;;;2.90;;
32814;SDS011;19165;48.182;16.374;2022-08-01T04:12:55;4.93;;;3.17;;
32814;SDS011;19165;48.182;16.374;2022-08-01T04:15:21;3.20;;;2.90;;
32814;SDS011;19165;48.182;16.374;2022-08-01T04:17:47;3.85;;;2.70;;
32814;SDS011;19165;48.182;16.374;2022-08-01T04:20:13;6.13;;;3.47;;
32814;SDS011;19165;48.182;16.374;2022-08-01T04:22:40;7.50;;;3.83;;
32814;SDS011;19165;48.182;16.374;2022-08-01T04:25:09;8.23;;;3.30;;
32814;SDS011;19165;48.182;16.374;2022-08-01T04:27:48;6.00;;;3.13;;
32814;SDS011;19165;48.182;16.374;2022-08-01T04:30:17;6.53;;;3.60;;
32814;SDS011;19165;48.182;16.374;2022-08-01T04:32:46;4.93;;;3.50;;
32814;SDS011;19165;48.182;16.374;2022-08-01T04:35:13;5.60;;;3.90;;
32814;SDS011;19165;48.182;16.374;2022-08-01T04:37:43;8.13;;;3.20;;
32814;SDS011;19165;48.182;16.374;2022-08-01T04:40:11;6.20;;;3.25;;
32814;SDS011;19165;48.182;16.374;2022-08-01T04:42:37;10.95;;;4.50;;
32814;SDS011;19165;48.182;16.374;2022-08-01T04:45:04;7.25;;;3.38;;
32814;SDS011;19165;48.182;16.374;2022-08-01T04:47:35;6.68;;;3.80;;
32814;SDS011;19165;48.182;16.374;2022-08-01T04:50:03;7.18;;;3.80;;
32814;SDS011;19165;48.182;16.374;2022-08-01T04:52:32;7.60;;;3.78;;
32814;SDS011;19165;48.182;16.374;2022-08-01T04:54:59;4.25;;;3.70;;
32814;SDS011;19165;48.182;16.374;2022-08-01T04:57:26;4.93;;;3.20;;
32814;SDS011;19165;48.182;16.374;2022-08-01T04:59:51;7.57;;;3.35;;
32814;SDS011;19165;48.182;16.374;2022-08-01T05:02:22;4.50;;;2.78;;
32814;SDS011;19165;48.182;16.374;2022-08-01T05:04:49;3.42;;;3.13;;
32814;SDS011;19165;48.182;16.374;2022-08-01T05:07:15;5.15;;;2.80;;
32814;SDS011;19165;48.182;16.374;2022-08-01T05:09:41;7.10;;;3.17;;
32814;SDS011;19165;48.182;16.374;2022-08-01T05:12:08;4.70;;;2.95;;
32814;SDS011;19165;48.182;16.374;2022-08-01T05:14:35;8.05;;;3.15;;
32814;SDS011;19165;48.182;16.374;2022-08-01T05:17:02;4.10;;;2.92;;
32814;SDS011;19165;48.182;16.374;2022-08-01T05:19:29;5.55;;;3.90;;
32814;SDS011;19165;48.182;16.374;2022-08-01T05:22:00;7.97;;;3.00;;
32814;SDS011;19165;48.182;16.374;2022-08-01T05:24:29;8.13;;;3.08;;
32814;SDS011;19165;48.182;16.374;2022-08-01T05:26:57;4.35;;;3.25;;
32814;SDS011;19165;48.182;16.374;2022-08-01T05:29:23;5.10;;;3.03;;
32814;SDS011;19165;48.182;16.374;2022-08-01T05:31:50;4.78;;;3.00;;
32814;SDS011;19165;48.182;16.374;2022-08-01T05:34:16;5.75;;;2.60;;
32814;SDS011;19165;48.182;16.374;2022-08-01T05:36:42;10.95;;;3.13;;
32814;SDS011;19165;48.182;16.374;2022-08-01T05:39:10;4.45;;;2.90;;
32814;SDS011;19165;48.182;16.374;2022-08-01T05:41:36;3.50;;;3.00;;
32814;SDS011;19165;48.182;16.374;2022-08-01T05:44:02;7.05;;;3.17;;
32814;SDS011;19165;48.182;16.374;2022-08-01T05:46:28;3.85;;;2.72;;
32814;SDS011;19165;48.182;16.374;2022-08-01T05:48:55;4.32;;;2.95;;
32814;SDS011;19165;48.182;16.374;2022-08-01T05:51:22;4.57;;;2.88;;
32814;SDS011;19165;48.182;16.374;2022-08-01T05:53:48;10.32;;;3.45;;
32814;SDS011;19165;48.182;16.374;2022-08-01T05:56:15;11.23;;;3.38;;
32814;SDS011;19165;48.182;16.374;2022-08-01T05:58:41;10.18;;;3.30;;
32814;SDS011;19165;48.182;16.374;2022-08-01T06:01:07;5.53;;;3.00;;
32814;SDS011;19165;48.182;16.374;2022-08-01T06:03:33;6.90;;;3.00;;
32814;SDS011;19165;48.182;16.374;2022-08-01T06:05:59;6.25;;;2.95;;
32814;SDS011;19165;48.182;16.374;2022-08-01T06:08:25;4.18;;;2.90;;
32814;SDS011;19165;48.182;16.374;2022-08-01T06:10:51;5.80;;;3.10;;
32814;SDS011;19165;48.182;16.374;2022-08-01T06:13:19;3.58;;;2.58;;
32814;SDS011;19165;48.182;16.374;2022-08-01T06:15:45;5.35;;;2.83;;
32814;SDS011;19165;48.182;16.374;2022-08-01T06:18:11;8.07;;;2.97;;
32814;SDS011;19165;48.182;16.374;2022-08-01T06:20:38;6.32;;;2.83;;
32814;SDS011;19165;48.182;16.374;2022-08-01T06:23:03;7.50;;;2.92;;
32814;SDS011;19165;48.182;16.374;2022-08-01T06:25:30;6.30;;;2.83;;
32814;SDS011;19165;48.182;16.374;2022-08-01T06:27:56;6.10;;;2.90;;
32814;SDS011;19165;48.182;16.374;2022-08-01T06:30:23;5.22;;;2.92;;
32814;SDS011;19165;48.182;16.374;2022-08-01T06:32:49;8.60;;;2.85;;
32814;SDS011;19165;48.182;16.374;2022-08-01T06:35:15;8.02;;;3.40;;
32814;SDS011;19165;48.182;16.374;2022-08-01T06:37:41;11.40;;;3.38;;
32814;SDS011;19165;48.182;16.374;2022-08-01T06:40:08;4.45;;;2.58;;
32814;SDS011;19165;48.182;16.374;2022-08-01T06:42:36;4.95;;;2.78;;
32814;SDS011;19165;48.182;16.374;2022-08-01T06:45:03;7.68;;;2.70;;
32814;SDS011;19165;48.182;16.374;2022-08-01T06:47:30;5.18;;;3.20;;
32814;SDS011;19165;48.182;16.374;2022-08-01T06:49:56;4.80;;;2.88;;
32814;SDS011;19165;48.182;16.374;2022-08-01T06:52:23;4.00;;;2.20;;
32814;SDS011;19165;48.182;16.374;2022-08-01T06:54:49;6.25;;;2.78;;
32814;SDS011;19165;48.182;16.374;2022-08-01T06:57:14;6.75;;;2.92;;
32814;SDS011;19165;48.182;16.374;2022-08-01T06:59:40;6.05;;;2.55;;
32814;SDS011;19165;48.182;16.374;2022-08-01T07:02:06;5.60;;;2.70;;
32814;SDS011;19165;48.182;16.374;2022-08-01T07:04:34;5.00;;;2.65;;
32814;SDS011;19165;48.182;16.374;2022-08-01T07:07:00;4.20;;;2.95;;
32814;SDS011;19165;48.182;16.374;2022-08-01T07:09:26;4.72;;;2.50;;
32814;SDS011;19165;48.182;16.374;2022-08-01T07:11:52;7.65;;;3.03;;
32814;SDS011;19165;48.182;16.374;2022-08-01T07:14:19;3.70;;;2.58;;
32814;SDS011;19165;48.182;16.374;2022-08-01T07:16:45;8.07;;;3.03;;
32814;SDS011;19165;48.182;16.374;2022-08-01T07:19:11;4.78;;;3.40;;
32814;SDS011;19165;48.182;16.374;2022-08-01T07:21:39;5.55;;;2.10;;
32814;SDS011;19165;48.182;16.374;2022-08-01T07:24:05;5.90;;;2.20;;
32814;SDS011;19165;48.182;16.374;2022-08-01T07:26:32;5.07;;;2.30;;
32814;SDS011;19165;48.182;16.374;2022-08-01T07:28:58;3.55;;;2.15;;
32814;SDS011;19165;48.182;16.374;2022-08-01T07:31:24;2.97;;;2.30;;
32814;SDS011;19165;48.182;16.374;2022-08-01T07:33:50;4.68;;;2.40;;
32814;SDS011;19165;48.182;16.374;2022-08-01T07:36:16;7.85;;;2.60;;
32814;SDS011;19165;48.182;16.374;2022-08-01T07:38:43;9.25;;;2.70;;
32814;SDS011;19165;48.182;16.374;2022-08-01T07:41:10;4.60;;;2.20;;
32814;SDS011;19165;48.182;16.374;2022-08-01T07:43:36;5.97;;;2.58;;
32814;SDS011;19165;48.182;16.374;2022-08-01T07:46:02;6.47;;;2.58;;
32814;SDS011;19165;48.182;16.374;2022-08-01T07:48:28;5.43;;;2.38;;
32814;SDS011;19165;48.182;16.374;2022-08-01T07:50:54;4.88;;;2.50;;
32814;SDS011;19165;48.182;16.374;2022-08-01T07:53:20;3.75;;;2.30;;
32814;SDS011;19165;48.182;16.374;2022-08-01T07:55:48;4.53;;;2.50;;
32814;SDS011;19165;48.182;16.374;2022-08-01T07:58:14;4.85;;;2.35;;
32814;SDS011;19165;48.182;16.374;2022-08-01T08:00:40;6.95;;;2.30;;
32814;SDS011;19165;48.182;16.374;2022-08-01T08:03:06;3.30;;;2.35;;
32814;SDS011;19165;48.182;16.374;2022-08-01T08:05:32;5.63;;;2.90;;
32814;SDS011;19165;48.182;16.374;2022-08-01T08:08:01;9.32;;;2.72;;
32814;SDS011;19165;48.182;16.374;2022-08-01T08:10:27;6.40;;;2.42;;
32814;SDS011;19165;48.182;16.374;2022-08-01T08:12:54;8.40;;;2.25;;
32814;SDS011;19165;48.182;16.374;2022-08-01T08:15:20;3.60;;;2.53;;
32814;SDS011;19165;48.182;16.374;2022-08-01T08:17:46;7.45;;;2.58;;
32814;SDS011;19165;48.182;16.374;2022-08-01T08:20:12;20.27;;;3.63;;
32814;SDS011;19165;48.182;16.374;2022-08-01T08:22:39;7.05;;;2.45;;
32814;SDS011;19165;48.182;16.374;2022-08-01T08:25:05;4.45;;;2.15;;
32814;SDS011;19165;48.182;16.374;2022-08-01T08:27:32;11.07;;;2.63;;
32814;SDS011;19165;48.182;16.374;2022-08-01T08:30:00;7.15;;;2.55;;
32814;SDS011;19165;48.182;16.374;2022-08-01T08:32:26;3.53;;;2.35;;
32814;SDS011;19165;48.182;16.374;2022-08-01T08:34:52;9.85;;;2.97;;
32814;SDS011;19165;48.182;16.374;2022-08-01T08:37:18;5.60;;;2.40;;
32814;SDS011;19165;48.182;16.374;2022-08-01T08:39:43;3.65;;;2.20;;
32814;SDS011;19165;48.182;16.374;2022-08-01T08:42:10;2.70;;;1.83;;
32814;SDS011;19165;48.182;16.374;2022-08-01T08:44:36;2.22;;;2.03;;
32814;SDS011;19165;48.182;16.374;2022-08-01T08:47:05;5.15;;;2.30;;
32814;SDS011;19165;48.182;16.374;2022-08-01T08:49:33;3.83;;;2.17;;
32814;SDS011;19165;48.182;16.374;2022-08-01T08:52:00;4.10;;;2.20;;
32814;SDS011;19165;48.182;16.374;2022-08-01T08:54:28;7.40;;;2.35;;
32814;SDS011;19165;48.182;16.374;2022-08-01T08:56:55;5.53;;;2.30;;
32814;SDS011;19165;48.182;16.374;2022-08-01T08:59:22;8.07;;;2.90;;
32814;SDS011;19165;48.182;16.374;2022-08-01T09:01:51;3.83;;;2.35;;
32814;SDS011;19165;48.182;16.374;2022-08-01T09:04:19;4.53;;;2.30;;
32814;SDS011;19165;48.182;16.374;2022-08-01T09:06:47;3.95;;;2.17;;
32814;SDS011;19165;48.182;16.374;2022-08-01T09:09:13;3.55;;;2.00;;
32814;SDS011;19165;48.182;16.374;2022-08-01T09:11:40;7.53;;;2.20;;
32814;SDS011;19165;48.182;16.374;2022-08-01T09:14:07;4.55;;;2.30;;
32814;SDS011;19165;48.182;16.374;2022-08-01T09:16:34;4.40;;;2.40;;
32814;SDS011;19165;48.182;16.374;2022-08-01T09:19:12;2.70;;;2.47;;
32814;SDS011;19165;48.182;16.374;2022-08-01T09:21:54;7.50;;;2.33;;
32814;SDS011;19165;48.182;16.374;2022-08-01T09:24:21;8.38;;;2.47;;
32814;SDS011;19165;48.182;16.374;2022-08-01T09:26:47;5.13;;;2.17;;
32814;SDS011;19165;48.182;16.374;2022-08-01T09:29:19;6.47;;;2.42;;
32814;SDS011;19165;48.182;16.374;2022-08-01T09:31:46;4.78;;;2.05;;
32814;SDS011;19165;48.182;16.374;2022-08-01T09:34:12;7.15;;;3.40;;
32814;SDS011;19165;48.182;16.374;2022-08-01T09:36:49;6.70;;;2.75;;
32814;SDS011;19165;48.182;16.374;2022-08-01T09:39:17;9.57;;;2.47;;
32814;SDS011;19165;48.182;16.374;2022-08-01T09:41:43;3.45;;;2.25;;
32814;SDS011;19165;48.182;16.374;2022-08-01T09:44:10;3.67;;;2.30;;
32814;SDS011;19165;48.182;16.374;2022-08-01T09:46:35;3.65;;;2.40;;
32814;SDS011;19165;48.182;16.374;2022-08-01T09:49:13;3.20;;;2.60;;
32814;SDS011;19165;48.182;16.374;2022-08-01T09:51:39;4.47;;;2.47;;
32814;SDS011;19165;48.182;16.374;2022-08-01T09:54:07;5.53;;;2.33;;
32814;SDS011;19165;48.182;16.374;2022-08-01T09:56:37;4.90;;;2.30;;
32814;SDS011;19165;48.182;16.374;2022-08-01T09:59:04;4.10;;;2.55;;
32814;SDS011;19165;48.182;16.374;2022-08-01T10:01:44;4.15;;;2.42;;
32814;SDS011;19165;48.182;16.374;2022-08-01T10:04:12;7.07;;;2.50;;
32814;SDS011;19165;48.182;16.374;2022-08-01T10:06:40;3.65;;;2.42;;
32814;SDS011;19165;48.182;16.374;2022-08-01T10:09:12;8.05;;;2.88;;
32814;SDS011;19165;48.182;16.374;2022-08-01T10:11:40;5.57;;;2.58;;
32814;SDS011;19165;48.182;16.374;2022-08-01T10:14:07;2.58;;;2.28;;
32814;SDS011;19165;48.182;16.374;2022-08-01T10:16:33;4.18;;;2.72;;
32814;SDS011;19165;48.182;16.374;2022-08-01T10:19:00;3.15;;;2.13;;
32814;SDS011;19165;48.182;16.374;2022-08-01T10:21:27;3.42;;;2.30;;
32814;SDS011;19165;48.182;16.374;2022-08-01T10:23:54;4.75;;;1.98;;
32814;SDS011;19165;48.182;16.374;2022-08-01T10:26:22;2.42;;;1.95;;
32814;SDS011;19165;48.182;16.374;2022-08-01T10:28:50;6.47;;;2.47;;
32814;SDS011;19165;48.182;16.374;2022-08-01T10:31:17;4.40;;;2.63;;
32814;SDS011;19165;48.182;16.374;2022-08-01T10:33:44;5.32;;;2.40;;
32814;SDS011;19165;48.182;16.374;2022-08-01T10:36:10;4.13;;;2.70;;
32814;SDS011;19165;48.182;16.374;2022-08-01T10:38:37;3.67;;;2.25;;
32814;SDS011;19165;48.182;16.374;2022-08-01T10:41:04;5.13;;;2.63;;
32814;SDS011;19165;48.182;16.374;2022-08-01T10:43:32;3.22;;;2.40;;
32814;SDS011;19165;48.182;16.374;2022-08-01T10:45:58;3.63;;;2.40;;
32814;SDS011;19165;48.182;16.374;2022-08-01T10:48:26;2.95;;;2.72;;
32814;SDS011;19165;48.182;16.374;2022-08-01T10:51:01;4.10;;;2.47;;
32814;SDS011;19165;48.182;16.374;2022-08-01T10:53:29;5.65;;;2.50;;
32814;SDS011;19165;48.182;16.374;2022-08-01T10:55:58;4.40;;;2.50;;
32814;SDS011;19165;48.182;16.374;2022-08-01T10:58:26;5.78;;;3.40;;
32814;SDS011;19165;48.182;16.374;2022-08-01T11:01:21;5.90;;;2.80;;
32814;SDS011;19165;48.182;16.374;2022-08-01T11:03:59;3.25;;;2.40;;
32814;SDS011;19165;48.182;16.374;2022-08-01T11:09:27;3.38;;;3.08;;
32814;SDS011;19165;48.182;16.374;2022-08-01T11:11:59;4.82;;;3.00;;
32814;SDS011;19165;48.182;16.374;2022-08-01T11:14:29;3.13;;;2.50;;
32814;SDS011;19165;48.182;16.374;2022-08-01T11:16:56;3.05;;;2.70;;
32814;SDS011;19165;48.182;16.374;2022-08-01T11:28:46;9.05;;;2.78;;
32814;SDS011;19165;48.182;16.374;2022-08-01T11:31:36;2.67;;;2.33;;
32814;SDS011;19165;48.182;16.374;2022-08-01T11:34:02;7.20;;;3.10;;
32814;SDS011;19165;48.182;16.374;2022-08-01T11:36:29;4.30;;;2.85;;
32814;SDS011;19165;48.182;16.374;2022-08-01T11:39:12;3.58;;;2.58;;
32814;SDS011;19165;48.182;16.374;2022-08-01T11:41:42;3.22;;;2.40;;
32814;SDS011;19165;48.182;16.374;2022-08-01T11:44:10;6.90;;;3.13;;
32814;SDS011;19165;48.182;16.374;2022-08-01T11:46:45;4.80;;;2.92;;
32814;SDS011;19165;48.182;16.374;2022-08-01T11:49:25;4.38;;;2.35;;
32814;SDS011;19165;48.182;16.374;2022-08-01T11:51:59;5.43;;;2.67;;
32814;SDS011;19165;48.182;16.374;2022-08-01T11:54:26;3.17;;;2.60;;
32814;SDS011;19165;48.182;16.374;2022-08-01T11:56:55;6.13;;;2.92;;
32814;SDS011;19165;48.182;16.374;2022-08-01T11:59:21;2.85;;;2.53;;
32814;SDS011;19165;48.182;16.374;2022-08-01T12:01:47;3.25;;;2.55;;
32814;SDS011;19165;48.182;16.374;2022-08-01T12:04:13;6.20;;;2.80;;
32814;SDS011;19165;48.182;16.374;2022-08-01T12:06:39;7.72;;;2.92;;
32814;SDS011;19165;48.182;16.374;2022-08-01T12:09:17;4.45;;;2.47;;
32814;SDS011;19165;48.182;16.374;2022-08-01T12:11:44;5.57;;;2.83;;
32814;SDS011;19165;48.182;16.374;2022-08-01T12:14:15;4.53;;;2.70;;
32814;SDS011;19165;48.182;16.374;2022-08-01T12:16:47;2.78;;;2.58;;
32814;SDS011;19165;48.182;16.374;2022-08-01T12:19:17;3.88;;;2.75;;
32814;SDS011;19165;48.182;16.374;2022-08-01T12:21:44;4.70;;;3.15;;
32814;SDS011;19165;48.182;16.374;2022-08-01T12:24:10;7.45;;;2.70;;
32814;SDS011;19165;48.182;16.374;2022-08-01T12:26:41;3.92;;;2.63;;
32814;SDS011;19165;48.182;16.374;2022-08-01T12:29:07;3.05;;;2.50;;
32814;SDS011;19165;48.182;16.374;2022-08-01T12:31:33;4.63;;;2.97;;
32814;SDS011;19165;48.182;16.374;2022-08-01T12:36:53;4.53;;;2.75;;
32814;SDS011;19165;48.182;16.374;2022-08-01T12:39:20;12.48;;;2.90;;
32814;SDS011;19165;48.182;16.374;2022-08-01T12:41:47;5.53;;;2.08;;
32814;SDS011;19165;48.182;16.374;2022-08-01T12:44:14;4.25;;;1.92;;
32814;SDS011;19165;48.182;16.374;2022-08-01T12:46:41;6.35;;;2.05;;
32814;SDS011;19165;48.182;16.374;2022-08-01T12:49:07;2.60;;;1.50;;
32814;SDS011;19165;48.182;16.374;2022-08-01T12:51:33;3.05;;;1.60;;
32814;SDS011;19165;48.182;16.374;2022-08-01T12:54:00;3.90;;;1.58;;
32814;SDS011;19165;48.182;16.374;2022-08-01T12:56:30;3.47;;;1.90;;
32814;SDS011;19165;48.182;16.374;2022-08-01T12:58:58;4.25;;;2.10;;
32814;SDS011;19165;48.182;16.374;2022-08-01T13:01:25;3.25;;;2.15;;
32814;SDS011;19165;48.182;16.374;2022-08-01T13:03:59;2.90;;;2.03;;
32814;SDS011;19165;48.182;16.374;2022-08-01T13:06:27;3.72;;;2.00;;
32814;SDS011;19165;48.182;16.374;2022-08-01T13:08:54;3.25;;;1.98;;
32814;SDS011;19165;48.182;16.374;2022-08-01T13:11:20;4.40;;;2.10;;
32814;SDS011;19165;48.182;16.374;2022-08-01T13:13:47;5.78;;;2.30;;
32814;SDS011;19165;48.182;16.374;2022-08-01T13:16:15;6.30;;;2.20;;
32814;SDS011;19165;48.182;16.374;2022-08-01T13:18:48;3.58;;;2.50;;
32814;SDS011;19165;48.182;16.374;2022-08-01T13:21:16;4.13;;;2.40;;
32814;SDS011;19165;48.182;16.374;2022-08-01T13:26:37;3.83;;;2.42;;
32814;SDS011;19165;48.182;16.374;2022-08-01T13:29:08;5.53;;;2.60;;
32814;SDS011;19165;48.182;16.374;2022-08-01T13:31:37;6.85;;;2.40;;
32814;SDS011;19165;48.182;16.374;2022-08-01T13:34:04;2.55;;;2.35;;
32814;SDS011;19165;48.182;16.374;2022-08-01T13:36:30;7.45;;;2.55;;
32814;SDS011;19165;48.182;16.374;2022-08-01T13:38:57;2.33;;;2.03;;
32814;SDS011;19165;48.182;16.374;2022-08-01T13:41:42;2.65;;;1.73;;
32814;SDS011;19165;48.182;16.374;2022-08-01T13:44:09;5.55;;;2.30;;
32814;SDS011;19165;48.182;16.374;2022-08-01T13:46:37;3.42;;;2.15;;
32814;SDS011;19165;48.182;16.374;2022-08-01T13:49:04;3.97;;;1.90;;
32814;SDS011;19165;48.182;16.374;2022-08-01T13:51:31;4.55;;;2.10;;
32814;SDS011;19165;48.182;16.374;2022-08-01T13:53:58;4.90;;;1.80;;
32814;SDS011;19165;48.182;16.374;2022-08-01T13:56:25;3.70;;;1.77;;
32814;SDS011;19165;48.182;16.374;2022-08-01T13:58:52;3.50;;;1.90;;
32814;SDS011;19165;48.182;16.374;2022-08-01T14:01:18;4.82;;;2.03;;
32814;SDS011;19165;48.182;16.374;2022-08-01T14:03:46;7.78;;;2.10;;
32814;SDS011;19165;48.182;16.374;2022-08-01T14:06:12;4.82;;;1.70;;
32814;SDS011;19165;48.182;16.374;2022-08-01T14:08:39;1.60;;;1.50;;
32814;SDS011;19165;48.182;16.374;2022-08-01T14:11:05;1.90;;;1.70;;
32814;SDS011;19165;48.182;16.374;2022-08-01T14:13:31;1.85;;;1.55;;
32814;SDS011;19165;48.182;16.374;2022-08-01T14:15:58;6.55;;;1.45;;
32814;SDS011;19165;48.182;16.374;2022-08-01T14:18:24;2.42;;;1.70;;
32814;SDS011;19165;48.182;16.374;2022-08-01T14:20:52;5.57;;;1.63;;
32814;SDS011;19165;48.182;16.374;2022-08-01T14:23:18;4.25;;;1.60;;
32814;SDS011;19165;48.182;16.374;2022-08-01T14:25:44;8.18;;;2.10;;
32814;SDS011;19165;48.182;16.374;2022-08-01T14:28:10;2.67;;;1.60;;
32814;SDS011;19165;48.182;16.374;2022-08-01T14:30:36;4.78;;;2.10;;
32814;SDS011;19165;48.182;16.374;2022-08-01T14:33:02;2.38;;;1.50;;
32814;SDS011;19165;48.182;16.374;2022-08-01T14:35:28;4.05;;;1.95;;
32814;SDS011;19165;48.182;16.374;2022-08-01T14:37:56;1.52;;;1.40;;
32814;SDS011;19165;48.182;16.374;2022-08-01T14:40:22;2.35;;;1.73;;
32814;SDS011;19165;48.182;16.374;2022-08-01T14:42:48;2.83;;;1.58;;
32814;SDS011;19165;48.182;16.374;2022-08-01T14:45:14;3.15;;;1.30;;
32814;SDS011;19165;48.182;16.374;2022-08-01T14:47:41;4.50;;;1.65;;
32814;SDS011;19165;48.182;16.374;2022-08-01T14:50:09;2.58;;;1.50;;
32814;SDS011;19165;48.182;16.374;2022-08-01T14:52:37;4.05;;;1.67;;
32814;SDS011;19165;48.182;16.374;2022-08-01T14:55:06;2.28;;;2.00;;
32814;SDS011;19165;48.182;16.374;2022-08-01T14:57:33;3.63;;;1.50;;